Terminal Aerodrome Forecast
Issued by NWS Sioux Falls, SD

Home | Current Version | Previous Version | Graphics & Text | Print | Product List | Glossary Off
Versions: 1 2 3 4 5 6 7 8 9 10 11 12 13 14 15

000
FTUS43 KFSD 301405 AAB
TAFFSD
TAF AMD
KFSD 301405Z 3014/3112 33011KT P6SM SCT090 BKN150
     FM301700 34014KT P6SM SCT025 BKN040
     FM301900 34018G28KT P6SM BKN030
     FM310100 01012KT P6SM SCT035=

USA.gov is the U.S. government's official web portal to all federal, state and local government web resources and services.